Time;durP1;ratioP1;P1;durP2;ratioP2;P2;SDS_P1;SDS_P2;PMS_P1;PMS_P2;Temp;Humidity;BMP_temperature;BMP_pressure;BME280_temperature;BME280_humidity;BME280_pressure;Samples;Min_cycle;Max_cycle;Signal;HPM_P1;HPM_P2
2022/10/26 00:01:06;;;;;;;0.40;0.40;;;10.60;99.90;;;;;;5051968;28;20434;-68
2022/10/26 00:03:56;;;;;;;0.40;0.40;;;10.60;99.90;;;;;;5051723;28;20979;-69
2022/10/26 00:06:44;;;;;;;0.50;0.50;;;10.60;99.90;;;;;;5051726;28;20427;-69
2022/10/26 00:09:32;;;;;;;0.70;0.70;;;10.50;99.90;;;;;;5052118;28;20428;-69
2022/10/26 00:12:20;;;;;;;0.40;0.40;;;10.50;99.90;;;;;;5051102;28;20424;-69
2022/10/26 00:15:09;;;;;;;0.40;0.40;;;10.50;99.90;;;;;;5051284;28;20475;-69
2022/10/26 00:17:57;;;;;;;0.40;0.40;;;10.50;99.90;;;;;;5051801;28;20431;-69
2022/10/26 00:20:47;;;;;;;0.40;0.40;;;10.50;99.90;;;;;;5051723;28;21024;-69
2022/10/26 00:23:35;;;;;;;0.40;0.40;;;10.50;99.90;;;;;;5051383;28;21010;-69
2022/10/26 00:26:23;;;;;;;0.40;0.40;;;10.50;99.90;;;;;;5051384;28;20452;-69
2022/10/26 00:29:12;;;;;;;0.60;0.60;;;10.40;99.90;;;;;;5051513;28;20420;-69
2022/10/26 00:32:00;;;;;;;0.40;0.40;;;10.50;99.90;;;;;;5051137;28;20771;-68
2022/10/26 00:34:48;;;;;;;0.40;0.40;;;10.50;99.90;;;;;;5051823;28;20460;-69
2022/10/26 00:37:37;;;;;;;0.40;0.40;;;10.50;99.90;;;;;;5051290;28;20422;-68
2022/10/26 00:40:28;;;;;;;0.40;0.40;;;10.50;99.90;;;;;;5051507;28;20508;-70
2022/10/26 00:43:31;;;;;;;0.40;0.40;;;10.40;99.90;;;;;;5051155;28;20450;-68
2022/10/26 00:46:24;;;;;;;0.40;0.40;;;10.50;99.90;;;;;;5051652;28;20470;-69
2022/10/26 00:49:15;;;;;;;0.40;0.40;;;10.40;99.90;;;;;;5051126;28;20454;-69
2022/10/26 00:52:06;;;;;;;0.40;0.40;;;10.40;99.90;;;;;;5050866;28;20439;-70
2022/10/26 00:54:56;;;;;;;0.40;0.40;;;10.40;99.90;;;;;;5050837;28;20443;-70
2022/10/26 00:57:44;;;;;;;0.40;0.40;;;10.40;99.90;;;;;;5037469;28;20441;-69
2022/10/26 01:00:32;;;;;;;1.17;1.17;;;10.40;99.90;;;;;;5030441;28;20425;-70
2022/10/26 01:03:20;;;;;;;0.40;0.40;;;10.40;99.90;;;;;;5030383;28;20544;-70
2022/10/26 01:06:11;;;;;;;0.40;0.40;;;10.40;99.90;;;;;;5031535;28;20417;-68
2022/10/26 01:08:59;;;;;;;0.40;0.40;;;10.30;99.90;;;;;;5030241;28;20444;-69
2022/10/26 01:11:49;;;;;;;0.50;0.50;;;10.30;99.90;;;;;;5031747;28;20459;-68
2022/10/26 01:14:37;;;;;;;0.43;0.43;;;10.30;99.90;;;;;;5030277;28;20445;-68
2022/10/26 01:17:35;;;;;;;0.40;0.40;;;10.30;99.90;;;;;;5029712;28;20424;-69
2022/10/26 01:21:12;;;;;;;0.50;0.50;;;10.30;99.90;;;;;;5030503;28;20572;-69
2022/10/26 01:24:18;;;;;;;0.40;0.40;;;10.30;99.90;;;;;;5034452;28;20444;-69
2022/10/26 01:27:28;;;;;;;0.40;0.40;;;10.30;99.90;;;;;;5034889;28;20427;-69
2022/10/26 01:30:24;;;;;;;0.50;0.50;;;10.20;99.90;;;;;;5033559;28;20420;-69
2022/10/26 01:33:29;;;;;;;0.40;0.40;;;10.20;99.90;;;;;;5033674;28;20486;-70
2022/10/26 01:36:27;;;;;;;0.40;0.40;;;10.20;99.90;;;;;;5033805;28;20910;-69
2022/10/26 01:39:21;;;;;;;0.47;0.47;;;10.20;99.90;;;;;;5033162;28;20522;-69
2022/10/26 01:42:13;;;;;;;0.40;0.40;;;10.20;99.90;;;;;;5033558;28;20499;-68
2022/10/26 01:45:06;;;;;;;0.40;0.40;;;10.20;99.90;;;;;;5033710;28;20977;-69
2022/10/26 01:47:57;;;;;;;2.00;1.93;;;10.10;99.90;;;;;;5034529;28;20425;-69
2022/10/26 01:50:49;;;;;;;0.50;0.50;;;10.10;99.90;;;;;;5032818;28;20799;-69
2022/10/26 01:53:44;;;;;;;0.40;0.40;;;10.10;99.90;;;;;;5033143;28;20445;-69
2022/10/26 01:56:36;;;;;;;0.50;0.50;;;10.10;99.90;;;;;;5033924;28;20469;-69
2022/10/26 01:59:49;;;;;;;0.50;0.50;;;10.10;99.90;;;;;;5030251;28;20437;-69
2022/10/26 02:02:54;;;;;;;0.50;0.50;;;10.10;99.90;;;;;;5029698;28;20424;-70
2022/10/26 02:05:57;;;;;;;0.40;0.40;;;10.10;99.90;;;;;;5033797;28;20439;-69
2022/10/26 02:09:00;;;;;;;0.40;0.40;;;10.10;99.90;;;;;;5033737;28;20417;-69
2022/10/26 02:11:51;;;;;;;0.50;0.50;;;10.00;99.90;;;;;;5034187;28;20515;-68
2022/10/26 02:14:48;;;;;;;2.30;2.20;;;10.00;99.90;;;;;;5034893;28;20441;-69
2022/10/26 02:17:42;;;;;;;0.40;0.40;;;10.00;99.90;;;;;;5036339;28;20469;-68
2022/10/26 02:20:34;;;;;;;0.40;0.40;;;10.00;99.90;;;;;;5035778;28;20428;-69
2022/10/26 02:23:26;;;;;;;0.40;0.40;;;10.00;99.90;;;;;;5035471;28;20445;-69
2022/10/26 02:26:17;;;;;;;0.40;0.40;;;10.00;99.90;;;;;;5034022;28;20425;-68
2022/10/26 02:29:09;;;;;;;0.50;0.50;;;10.00;99.90;;;;;;5034024;28;20430;-69
2022/10/26 02:31:58;;;;;;;0.40;0.40;;;10.10;99.90;;;;;;5034026;28;20425;-69
2022/10/26 02:34:49;;;;;;;0.40;0.40;;;10.00;99.90;;;;;;5032875;28;20465;-68
2022/10/26 02:37:39;;;;;;;0.47;0.47;;;10.00;99.90;;;;;;5033866;28;20495;-69
2022/10/26 02:40:29;;;;;;;0.40;0.40;;;10.00;99.90;;;;;;5033638;28;20436;-69
2022/10/26 02:43:20;;;;;;;0.47;0.47;;;9.90;99.90;;;;;;5034234;28;20824;-69
2022/10/26 02:46:12;;;;;;;0.40;0.40;;;9.90;99.90;;;;;;5034095;28;20785;-69
2022/10/26 02:49:01;;;;;;;0.50;0.50;;;9.90;99.90;;;;;;5034113;28;20508;-69
2022/10/26 02:51:52;;;;;;;0.40;0.40;;;9.90;99.90;;;;;;5033999;28;20432;-70
2022/10/26 02:54:49;;;;;;;0.40;0.40;;;10.00;99.90;;;;;;5033732;28;20444;-68
2022/10/26 02:57:41;;;;;;;0.40;0.40;;;9.90;99.90;;;;;;5033537;28;20995;-69
2022/10/26 03:00:30;;;;;;;0.40;0.40;;;10.00;99.90;;;;;;5032371;28;20428;-69
2022/10/26 03:03:19;;;;;;;0.50;0.50;;;9.90;99.90;;;;;;5031978;28;20449;-69
2022/10/26 03:06:07;;;;;;;2.47;2.30;;;9.80;99.90;;;;;;5033119;28;20436;-68
2022/10/26 03:08:55;;;;;;;0.40;0.40;;;9.90;99.90;;;;;;5031768;28;21050;-69
2022/10/26 03:11:43;;;;;;;0.40;0.40;;;9.90;99.90;;;;;;5031822;28;20500;-68
2022/10/26 03:14:33;;;;;;;0.40;0.40;;;9.70;99.90;;;;;;5031787;28;20536;-69
2022/10/26 03:17:21;;;;;;;0.40;0.40;;;9.70;99.90;;;;;;5032736;28;20583;-69
2022/10/26 03:20:10;;;;;;;0.40;0.40;;;9.70;99.90;;;;;;5031731;28;20429;-68
2022/10/26 03:22:58;;;;;;;0.40;0.40;;;10.20;99.90;;;;;;5033178;28;20451;-69
2022/10/26 03:25:46;;;;;;;0.40;0.40;;;9.70;99.90;;;;;;5031802;28;20429;-68
2022/10/26 03:28:34;;;;;;;0.40;0.40;;;9.60;99.90;;;;;;5032015;28;20421;-68
2022/10/26 03:31:23;;;;;;;0.40;0.40;;;9.70;99.90;;;;;;5031259;28;20421;-69
2022/10/26 03:34:12;;;;;;;0.40;0.40;;;9.70;99.90;;;;;;5032033;28;20468;-70
2022/10/26 03:37:00;;;;;;;0.40;0.40;;;9.70;99.90;;;;;;5031061;28;20491;-69
2022/10/26 03:39:48;;;;;;;0.40;0.40;;;9.60;99.90;;;;;;5031320;28;20619;-68
2022/10/26 03:42:37;;;;;;;0.40;0.40;;;9.60;99.90;;;;;;5031261;28;20431;-70
2022/10/26 03:45:25;;;;;;;0.40;0.40;;;9.60;99.90;;;;;;5030782;28;20457;-68
2022/10/26 03:48:14;;;;;;;0.40;0.40;;;9.60;99.90;;;;;;5030707;28;20424;-68
2022/10/26 03:51:02;;;;;;;0.40;0.40;;;9.60;99.90;;;;;;5030607;28;20425;-69
2022/10/26 03:53:50;;;;;;;0.40;0.40;;;9.60;99.90;;;;;;5030886;28;20448;-69
2022/10/26 03:56:38;;;;;;;0.40;0.40;;;9.50;99.90;;;;;;5036055;28;20474;-69
2022/10/26 03:59:26;;;;;;;0.50;0.50;;;9.50;99.90;;;;;;5050736;28;20432;-69
2022/10/26 04:02:14;;;;;;;0.40;0.40;;;9.50;99.90;;;;;;5052000;28;20424;-68
2022/10/26 04:05:04;;;;;;;1.70;1.60;;;9.50;99.90;;;;;;5051408;28;20542;-68
2022/10/26 04:07:53;;;;;;;0.40;0.40;;;9.50;99.90;;;;;;5051036;28;20424;-69
2022/10/26 04:10:41;;;;;;;0.40;0.40;;;9.50;99.90;;;;;;5050689;28;20423;-68
2022/10/26 04:13:29;;;;;;;0.40;0.40;;;9.50;99.90;;;;;;5050936;28;20442;-69
2022/10/26 04:16:17;;;;;;;0.40;0.40;;;9.50;99.90;;;;;;5051130;28;20431;-69
2022/10/26 04:19:05;;;;;;;0.40;0.40;;;9.40;99.90;;;;;;5050786;28;20426;-69
2022/10/26 04:21:55;;;;;;;0.40;0.40;;;9.50;99.90;;;;;;5051006;28;20424;-69
2022/10/26 04:24:43;;;;;;;0.40;0.40;;;9.50;99.90;;;;;;5050990;28;20970;-69
2022/10/26 04:27:31;;;;;;;0.40;0.40;;;9.40;99.90;;;;;;5051456;28;20413;-69
2022/10/26 04:30:19;;;;;;;0.40;0.40;;;9.40;99.90;;;;;;5050775;28;20427;-69
2022/10/26 04:33:07;;;;;;;0.40;0.40;;;9.40;99.90;;;;;;5075506;22;20456;-70
2022/10/26 04:35:59;;;;;;;0.40;0.40;;;9.40;99.90;;;;;;5031845;28;20971;-69
2022/10/26 04:38:49;;;;;;;0.40;0.40;;;9.40;99.90;;;;;;5031819;28;20603;-69
2022/10/26 04:41:37;;;;;;;0.40;0.40;;;9.40;99.90;;;;;;5032024;28;20432;-70
2022/10/26 04:44:25;;;;;;;0.40;0.40;;;9.30;99.90;;;;;;5032161;28;20453;-69
2022/10/26 04:47:13;;;;;;;0.40;0.40;;;9.30;99.90;;;;;;5032186;28;21019;-70
2022/10/26 04:50:02;;;;;;;0.60;0.60;;;9.30;99.90;;;;;;5032799;28;20425;-68
2022/10/26 04:52:50;;;;;;;0.40;0.40;;;9.30;99.90;;;;;;5032550;28;20530;-69
2022/10/26 04:55:40;;;;;;;0.40;0.40;;;9.30;99.90;;;;;;5031770;28;20804;-70
2022/10/26 04:58:28;;;;;;;0.40;0.40;;;9.30;99.90;;;;;;5016234;28;20476;-69
2022/10/26 05:01:16;;;;;;;0.40;0.40;;;9.30;99.90;;;;;;5016648;28;20774;-69
2022/10/26 05:04:05;;;;;;;0.40;0.40;;;9.30;99.90;;;;;;5017689;28;20450;-70
2022/10/26 05:06:53;;;;;;;0.40;0.40;;;9.20;99.90;;;;;;5015861;28;20430;-69
2022/10/26 05:09:41;;;;;;;0.40;0.40;;;9.20;99.90;;;;;;5016452;28;20422;-69
2022/10/26 05:12:30;;;;;;;0.40;0.40;;;9.20;99.90;;;;;;5016782;28;20429;-69
2022/10/26 05:15:19;;;;;;;0.40;0.40;;;9.00;99.90;;;;;;5016674;28;20625;-69
2022/10/26 05:18:07;;;;;;;0.40;0.40;;;9.20;99.90;;;;;;5016515;28;20465;-69
2022/10/26 05:20:56;;;;;;;0.40;0.40;;;9.20;99.90;;;;;;5016250;28;20504;-69
2022/10/26 05:23:43;;;;;;;0.40;0.40;;;9.10;99.90;;;;;;5016602;28;20456;-69
2022/10/26 05:26:32;;;;;;;0.40;0.40;;;9.10;99.90;;;;;;5016888;28;20438;-70
2022/10/26 05:29:21;;;;;;;0.40;0.40;;;9.10;99.90;;;;;;5016685;28;20430;-69
2022/10/26 05:32:09;;;;;;;0.40;0.40;;;9.20;99.90;;;;;;5016891;28;20516;-70
2022/10/26 05:34:57;;;;;;;0.40;0.40;;;8.90;99.90;;;;;;5016038;28;20461;-69
2022/10/26 05:37:45;;;;;;;0.40;0.40;;;9.10;99.90;;;;;;5016100;28;20469;-69
2022/10/26 05:40:33;;;;;;;0.40;0.40;;;9.10;99.90;;;;;;5015720;28;20513;-69
2022/10/26 05:43:23;;;;;;;0.40;0.40;;;9.10;99.90;;;;;;5016419;28;20486;-70
2022/10/26 05:46:13;;;;;;;0.40;0.40;;;9.10;99.90;;;;;;5016029;28;20430;-69
2022/10/26 05:49:01;;;;;;;0.40;0.40;;;9.00;99.90;;;;;;5016770;28;20426;-69
2022/10/26 05:51:49;;;;;;;0.40;0.40;;;8.90;99.90;;;;;;5016639;28;20430;-69
2022/10/26 05:54:37;;;;;;;0.40;0.40;;;9.00;99.90;;;;;;5016266;28;20820;-69
2022/10/26 05:57:25;;;;;;;0.40;0.40;;;9.00;99.90;;;;;;5039459;28;20435;-69
2022/10/26 06:00:17;;;;;;;0.50;0.50;;;9.00;99.90;;;;;;5054133;28;20428;-71
2022/10/26 06:03:20;;;;;;;0.40;0.40;;;9.00;99.90;;;;;;5015955;28;20968;-69
2022/10/26 06:06:12;;;;;;;0.73;0.73;;;9.00;99.90;;;;;;5022699;28;20439;-69
2022/10/26 06:09:01;;;;;;;0.40;0.40;;;9.00;99.90;;;;;;5034912;28;20521;-69
2022/10/26 06:11:50;;;;;;;0.40;0.40;;;9.00;99.90;;;;;;5054511;28;20506;-69
2022/10/26 06:14:38;;;;;;;0.40;0.40;;;9.00;99.90;;;;;;5055029;28;20991;-69
2022/10/26 06:17:52;;;;;;;0.40;0.40;;;9.00;99.90;;;;;;5045527;28;20440;-69
2022/10/26 06:20:51;;;;;;;0.40;0.40;;;9.00;99.90;;;;;;5042305;28;20428;-69
2022/10/26 06:23:48;;;;;;;1.37;1.37;;;9.00;99.90;;;;;;5035885;28;20448;-70
2022/10/26 06:26:45;;;;;;;0.40;0.40;;;9.10;99.90;;;;;;5042932;28;20493;-70
2022/10/26 06:29:44;;;;;;;0.47;0.47;;;9.10;99.90;;;;;;5053201;28;20436;-70
2022/10/26 06:32:33;;;;;;;1.07;1.07;;;9.10;99.90;;;;;;5054480;28;20420;-70
2022/10/26 06:35:29;;;;;;;0.40;0.40;;;9.10;99.90;;;;;;5048130;28;20826;-74
2022/10/26 06:38:21;;;;;;;0.40;0.40;;;9.10;99.90;;;;;;5042126;28;20975;-70
2022/10/26 06:41:13;;;;;;;0.40;0.40;;;9.20;99.90;;;;;;5046960;28;20429;-70
2022/10/26 06:44:02;;;;;;;0.40;0.40;;;9.20;99.90;;;;;;5032610;28;20452;-70
2022/10/26 06:46:57;;;;;;;0.40;0.40;;;9.20;99.90;;;;;;5032019;28;20412;-69
2022/10/26 06:49:58;;;;;;;0.40;0.40;;;9.30;99.90;;;;;;5030388;28;20500;-70
2022/10/26 06:52:53;;;;;;;0.40;0.40;;;9.30;99.90;;;;;;5034613;28;20527;-70
2022/10/26 06:55:46;;;;;;;0.40;0.40;;;9.30;99.90;;;;;;5047851;28;20421;-70
2022/10/26 06:58:37;;;;;;;0.40;0.40;;;9.30;99.90;;;;;;5015684;28;20851;-70
2022/10/26 07:01:25;;;;;;;0.40;0.40;;;9.40;99.90;;;;;;5029311;28;20524;-70
2022/10/26 07:04:13;;;;;;;0.40;0.40;;;9.40;99.90;;;;;;5038235;28;20638;-72
2022/10/26 07:07:01;;;;;;;0.40;0.40;;;9.40;99.90;;;;;;5034072;28;20436;-70
2022/10/26 07:09:49;;;;;;;0.40;0.40;;;9.40;99.90;;;;;;5046089;28;20439;-70
2022/10/26 07:12:39;;;;;;;0.50;0.50;;;9.40;99.90;;;;;;5041122;28;20429;-70
2022/10/26 07:15:27;;;;;;;0.40;0.40;;;9.50;99.90;;;;;;5034025;28;20964;-70
2022/10/26 07:18:15;;;;;;;0.40;0.40;;;9.50;99.90;;;;;;5050414;28;20569;-70
2022/10/26 07:21:03;;;;;;;0.40;0.40;;;9.60;99.90;;;;;;5052232;28;20432;-70
2022/10/26 07:23:54;;;;;;;0.40;0.40;;;9.60;99.90;;;;;;5052732;28;20444;-71
2022/10/26 07:26:42;;;;;;;0.40;0.40;;;9.60;99.90;;;;;;5058170;28;20429;-71
2022/10/26 07:29:34;;;;;;;0.40;0.40;;;9.70;99.90;;;;;;5058627;28;20447;-69
2022/10/26 07:32:22;;;;;;;0.40;0.40;;;9.60;99.90;;;;;;5058408;28;20558;-68
2022/10/26 07:35:11;;;;;;;0.40;0.40;;;9.70;99.90;;;;;;5054494;28;20458;-68
2022/10/26 07:38:00;;;;;;;0.40;0.40;;;9.70;99.90;;;;;;5053742;28;20936;-69
2022/10/26 07:40:49;;;;;;;2.20;2.10;;;9.80;99.90;;;;;;5052283;28;20495;-69
2022/10/26 07:43:37;;;;;;;0.40;0.40;;;9.80;99.90;;;;;;5053458;28;20792;-69
2022/10/26 07:46:26;;;;;;;0.40;0.40;;;9.80;99.90;;;;;;5052735;28;20469;-69
2022/10/26 07:49:14;;;;;;;0.40;0.40;;;9.80;99.90;;;;;;5052350;28;20424;-68
2022/10/26 07:52:07;;;;;;;0.50;0.50;;;9.80;99.90;;;;;;5024226;28;20417;-68
2022/10/26 07:54:55;;;;;;;0.70;0.70;;;9.90;99.90;;;;;;5026328;28;20453;-69
2022/10/26 07:57:43;;;;;;;0.40;0.40;;;9.90;99.90;;;;;;5047378;28;20791;-68
2022/10/26 08:00:31;;;;;;;0.40;0.40;;;10.00;99.90;;;;;;5052016;28;20964;-68
2022/10/26 08:03:21;;;;;;;0.40;0.40;;;10.10;99.90;;;;;;5052786;28;20434;-69
2022/10/26 08:06:09;;;;;;;0.40;0.40;;;10.10;99.90;;;;;;5052524;28;20941;-68
2022/10/26 08:08:57;;;;;;;0.40;0.40;;;10.20;99.90;;;;;;5051956;28;20412;-69
2022/10/26 08:11:46;;;;;;;0.40;0.40;;;10.20;99.90;;;;;;5053208;28;20523;-69
2022/10/26 08:14:34;;;;;;;0.40;0.40;;;10.30;99.90;;;;;;5052445;28;20458;-69
2022/10/26 08:17:22;;;;;;;0.40;0.40;;;10.30;99.90;;;;;;5052349;28;20802;-69
2022/10/26 08:20:12;;;;;;;0.40;0.40;;;10.40;99.90;;;;;;5051842;28;20474;-69
2022/10/26 08:23:00;;;;;;;0.40;0.40;;;10.40;99.90;;;;;;5052211;28;20515;-69
2022/10/26 08:25:48;;;;;;;0.40;0.40;;;10.50;99.90;;;;;;5051755;28;20420;-68
2022/10/26 08:28:36;;;;;;;0.40;0.40;;;10.50;99.90;;;;;;5051824;28;20927;-68
2022/10/26 08:31:24;;;;;;;0.40;0.40;;;10.60;99.90;;;;;;5052153;28;20519;-68
2022/10/26 08:34:13;;;;;;;0.40;0.40;;;10.80;99.90;;;;;;5057978;28;20546;-68
2022/10/26 08:37:02;;;;;;;0.40;0.40;;;10.90;99.90;;;;;;5049472;28;20433;-68
2022/10/26 08:39:50;;;;;;;0.40;0.40;;;11.00;99.90;;;;;;5030354;28;20457;-68
2022/10/26 08:42:46;;;;;;;0.40;0.40;;;11.10;99.90;;;;;;5027514;28;20416;-69
2022/10/26 08:45:38;;;;;;;0.40;0.40;;;11.20;99.90;;;;;;5039001;28;20424;-69
2022/10/26 08:48:32;;;;;;;0.40;0.40;;;11.20;99.90;;;;;;5038739;28;20421;-69
2022/10/26 08:51:24;;;;;;;0.40;0.40;;;11.30;99.90;;;;;;5038280;28;20504;-69
2022/10/26 08:54:19;;;;;;;0.40;0.40;;;11.20;99.90;;;;;;5038014;28;20979;-68
2022/10/26 08:57:16;;;;;;;0.40;0.40;;;11.50;99.90;;;;;;5034412;28;20421;-68
2022/10/26 09:00:06;;;;;;;0.40;0.40;;;11.50;99.90;;;;;;5029534;28;20475;-68
2022/10/26 09:02:54;;;;;;;0.40;0.40;;;11.60;99.90;;;;;;5029219;28;20428;-68
2022/10/26 09:05:55;;;;;;;0.40;0.40;;;11.70;99.90;;;;;;5036063;28;20764;-69
2022/10/26 09:08:53;;;;;;;0.40;0.40;;;11.80;99.90;;;;;;5039213;28;20417;-69
2022/10/26 09:11:55;;;;;;;0.40;0.40;;;12.00;99.90;;;;;;5038382;28;20791;-69
2022/10/26 09:14:56;;;;;;;0.40;0.40;;;12.00;99.90;;;;;;5050091;28;20440;-68
2022/10/26 09:17:52;;;;;;;0.40;0.40;;;12.10;99.90;;;;;;5047785;28;20886;-68
2022/10/26 09:20:56;;;;;;;0.60;0.60;;;12.20;99.90;;;;;;5038245;28;20551;-68
2022/10/26 09:23:57;;;;;;;0.40;0.40;;;12.30;99.90;;;;;;5038360;28;20448;-69
2022/10/26 09:26:54;;;;;;;0.40;0.40;;;12.40;99.90;;;;;;5038907;28;20435;-69
2022/10/26 09:29:43;;;;;;;0.40;0.40;;;12.50;99.90;;;;;;5037957;28;20934;-69
2022/10/26 09:32:36;;;;;;;0.40;0.40;;;12.80;99.90;;;;;;5037847;28;20975;-69
2022/10/26 09:35:27;;;;;;;0.40;0.40;;;12.70;99.90;;;;;;5026748;28;21018;-69
2022/10/26 09:38:25;;;;;;;0.40;0.40;;;12.80;99.90;;;;;;5026590;28;20429;-69
2022/10/26 09:41:23;;;;;;;0.40;0.40;;;12.80;99.90;;;;;;5030036;28;20461;-69
2022/10/26 09:44:26;;;;;;;0.40;0.40;;;12.90;99.90;;;;;;5026074;28;20571;-69
2022/10/26 09:47:22;;;;;;;0.40;0.40;;;13.00;99.90;;;;;;5031197;28;20516;-68
2022/10/26 09:50:19;;;;;;;0.40;0.40;;;13.00;99.90;;;;;;5030607;28;20509;-69
2022/10/26 09:53:08;;;;;;;0.40;0.40;;;13.20;99.90;;;;;;5028865;28;20505;-69
2022/10/26 09:56:04;;;;;;;3.70;3.53;;;13.10;99.90;;;;;;5034942;28;20449;-69
2022/10/26 09:58:58;;;;;;;0.40;0.40;;;13.20;99.90;;;;;;5028659;28;20428;-68
2022/10/26 10:01:47;;;;;;;0.40;0.40;;;13.30;99.90;;;;;;5046731;28;20428;-69
2022/10/26 10:04:37;;;;;;;0.40;0.40;;;13.40;99.90;;;;;;5036560;28;20445;-69
2022/10/26 10:07:25;;;;;;;3.70;3.40;;;13.40;99.90;;;;;;5021999;28;20422;-69
2022/10/26 10:10:17;;;;;;;0.40;0.40;;;13.50;99.90;;;;;;5026682;28;20501;-69
2022/10/26 10:13:16;;;;;;;0.40;0.40;;;13.70;99.90;;;;;;5025610;28;20414;-69
2022/10/26 10:16:10;;;;;;;0.40;0.40;;;13.70;99.90;;;;;;5033472;28;20421;-68
2022/10/26 10:19:00;;;;;;;0.40;0.40;;;13.70;99.90;;;;;;5026987;28;21007;-69
2022/10/26 10:21:50;;;;;;;0.40;0.40;;;13.80;99.90;;;;;;5023185;28;20504;-69
2022/10/26 10:24:42;;;;;;;0.40;0.40;;;13.90;99.90;;;;;;5028678;28;20837;-68
2022/10/26 10:27:32;;;;;;;0.40;0.40;;;14.00;99.90;;;;;;5017975;28;21034;-69
2022/10/26 10:30:23;;;;;;;0.60;0.60;;;14.00;99.90;;;;;;5033893;28;20429;-69
2022/10/26 10:33:12;;;;;;;0.40;0.40;;;14.10;99.90;;;;;;5034614;28;20425;-69
2022/10/26 10:36:03;;;;;;;0.40;0.40;;;14.30;99.90;;;;;;5064874;22;20476;-68
2022/10/26 10:38:53;;;;;;;0.40;0.40;;;14.20;99.90;;;;;;5047833;28;21142;-68
2022/10/26 10:41:45;;;;;;;0.40;0.40;;;14.40;99.90;;;;;;5061979;28;20485;-68
2022/10/26 10:44:34;;;;;;;0.40;0.40;;;14.50;99.90;;;;;;5059105;28;20444;-68
2022/10/26 10:47:24;;;;;;;0.40;0.40;;;14.50;99.90;;;;;;5048274;28;20428;-68
2022/10/26 10:50:19;;;;;;;0.47;0.47;;;14.60;99.90;;;;;;5040385;28;20204;-68
2022/10/26 10:53:18;;;;;;;0.40;0.40;;;14.30;99.90;;;;;;5041559;28;20952;-68
2022/10/26 10:56:25;;;;;;;0.40;0.40;;;14.70;99.90;;;;;;5040709;28;20441;-68
2022/10/26 10:59:30;;;;;;;0.40;0.40;;;14.80;99.90;;;;;;5034103;28;20425;-68
2022/10/26 11:02:52;;;;;;;0.40;0.40;;;15.00;99.90;;;;;;5035329;28;20428;-68
2022/10/26 11:05:53;;;;;;;0.40;0.40;;;15.00;99.90;;;;;;5021065;28;20528;-67
2022/10/26 11:08:49;;;;;;;0.40;0.40;;;15.10;99.90;;;;;;5034617;28;20518;-68
2022/10/26 11:11:41;;;;;;;0.40;0.40;;;15.10;99.90;;;;;;5019246;28;20421;-68
2022/10/26 11:14:37;;;;;;;0.40;0.40;;;15.20;99.90;;;;;;5043922;28;20444;-68
2022/10/26 11:17:30;;;;;;;0.40;0.40;;;15.20;99.90;;;;;;5043421;28;20426;-68
2022/10/26 11:20:22;;;;;;;0.40;0.40;;;15.20;99.90;;;;;;5041914;28;20467;-68
2022/10/26 11:23:15;;;;;;;0.40;0.40;;;15.30;99.90;;;;;;5046905;28;20428;-68
2022/10/26 11:26:12;;;;;;;0.40;0.40;;;15.30;99.90;;;;;;5037233;28;20218;-67
2022/10/26 11:29:04;;;;;;;0.40;0.40;;;15.40;99.90;;;;;;5032883;28;20437;-68
2022/10/26 11:31:57;;;;;;;0.40;0.40;;;15.40;99.90;;;;;;5019536;28;20427;-68
2022/10/26 11:34:52;;;;;;;0.40;0.40;;;15.40;99.90;;;;;;5030951;28;20637;-68
2022/10/26 11:37:47;;;;;;;0.40;0.40;;;15.50;99.90;;;;;;5029432;28;20532;-68
2022/10/26 11:40:46;;;;;;;0.40;0.40;;;15.50;99.90;;;;;;5025600;28;20850;-68
2022/10/26 11:43:39;;;;;;;0.40;0.40;;;15.60;99.90;;;;;;5025206;28;20937;-68
2022/10/26 11:46:32;;;;;;;0.40;0.40;;;15.60;99.90;;;;;;5033468;28;20573;-68
2022/10/26 11:49:27;;;;;;;0.40;0.40;;;15.60;99.90;;;;;;5032424;28;20425;-68
2022/10/26 11:52:20;;;;;;;0.40;0.40;;;15.70;99.90;;;;;;5033231;28;20432;-67
2022/10/26 11:55:11;;;;;;;0.40;0.40;;;15.70;99.90;;;;;;5034232;28;20221;-68
2022/10/26 11:57:59;;;;;;;0.40;0.40;;;15.80;99.90;;;;;;5033395;28;20206;-67
2022/10/26 12:00:52;;;;;;;0.40;0.40;;;15.80;99.90;;;;;;5040328;28;20225;-68
2022/10/26 12:03:46;;;;;;;0.40;0.40;;;15.90;99.90;;;;;;5018232;28;20194;-68
2022/10/26 12:06:35;;;;;;;0.40;0.40;;;15.90;99.90;;;;;;5032153;28;20500;-68
2022/10/26 12:09:28;;;;;;;0.40;0.40;;;16.00;99.90;;;;;;5032011;28;20212;-68
2022/10/26 12:12:28;;;;;;;1.23;1.23;;;16.10;99.90;;;;;;5042656;28;20504;-68
2022/10/26 12:15:28;;;;;;;0.40;0.40;;;16.20;99.90;;;;;;5046757;28;20213;-68
2022/10/26 12:18:46;;;;;;;0.40;0.40;;;16.30;99.90;;;;;;5047430;28;20202;-68
2022/10/26 12:21:50;;;;;;;0.40;0.40;;;16.30;99.90;;;;;;5029613;28;20222;-68
2022/10/26 12:24:43;;;;;;;0.40;0.40;;;16.30;99.90;;;;;;5048275;28;20221;-68
2022/10/26 12:27:48;;;;;;;0.40;0.40;;;16.40;99.90;;;;;;5043127;28;20193;-68
2022/10/26 12:30:36;;;;;;;0.40;0.40;;;16.40;99.90;;;;;;5039610;28;20289;-68
2022/10/26 12:33:28;;;;;;;0.40;0.40;;;16.50;99.90;;;;;;5038500;28;20656;-68
2022/10/26 12:36:50;;;;;;;0.40;0.40;;;16.60;99.90;;;;;;5039902;28;20248;-68
2022/10/26 12:39:40;;;;;;;0.40;0.40;;;16.60;99.90;;;;;;5044610;28;20666;-68
2022/10/26 12:42:30;;;;;;;0.40;0.40;;;16.60;99.90;;;;;;5053203;28;20222;-68
2022/10/26 12:45:20;;;;;;;0.40;0.40;;;16.70;99.90;;;;;;5038984;28;20217;-67
2022/10/26 12:48:23;;;;;;;0.40;0.40;;;16.70;99.90;;;;;;5041538;28;20256;-67
2022/10/26 12:51:42;;;;;;;0.40;0.40;;;16.80;99.90;;;;;;5040250;28;20210;-67
2022/10/26 12:54:43;;;;;;;0.40;0.40;;;16.80;99.90;;;;;;5032177;28;20265;-67
2022/10/26 12:57:38;;;;;;;0.40;0.40;;;16.90;99.90;;;;;;5025886;28;20567;-68
2022/10/26 13:00:27;;;;;;;0.40;0.40;;;17.00;99.90;;;;;;5031435;28;20209;-68
2022/10/26 13:03:26;;;;;;;0.40;0.40;;;17.10;99.90;;;;;;5041112;28;21017;-68
2022/10/26 13:06:26;;;;;;;0.40;0.40;;;17.20;99.90;;;;;;5043030;28;20232;-68
2022/10/26 13:09:17;;;;;;;0.40;0.40;;;17.30;99.90;;;;;;5037443;28;20202;-68
2022/10/26 13:12:09;;;;;;;0.40;0.40;;;17.40;99.90;;;;;;5032846;28;20198;-68
2022/10/26 13:15:03;;;;;;;0.40;0.40;;;17.40;99.90;;;;;;5041896;28;20218;-67
2022/10/26 13:18:00;;;;;;;0.40;0.40;;;17.40;99.90;;;;;;5038390;28;20212;-67
2022/10/26 13:20:58;;;;;;;0.40;0.40;;;17.40;99.90;;;;;;5045374;28;20664;-68
2022/10/26 13:23:55;;;;;;;0.40;0.40;;;17.50;99.90;;;;;;5045734;28;20284;-68
2022/10/26 13:27:16;;;;;;;0.40;0.40;;;17.50;99.90;;;;;;5039649;28;20210;-68
2022/10/26 13:30:40;;;;;;;0.40;0.40;;;17.60;99.90;;;;;;5035054;28;20216;-67
2022/10/26 13:33:36;;;;;;;0.40;0.40;;;17.70;99.90;;;;;;5035724;28;20285;-67
2022/10/26 13:36:30;;;;;;;0.40;0.40;;;17.70;99.90;;;;;;5035587;28;20210;-68
2022/10/26 13:39:23;;;;;;;0.40;0.40;;;17.80;99.90;;;;;;5036990;28;20866;-68
2022/10/26 13:42:15;;;;;;;0.40;0.40;;;17.90;99.90;;;;;;5035897;28;20312;-68
2022/10/26 13:45:09;;;;;;;0.40;0.40;;;18.00;99.90;;;;;;5035070;28;20222;-68
2022/10/26 13:48:04;;;;;;;0.40;0.40;;;18.10;99.90;;;;;;5035431;28;20209;-67
2022/10/26 13:50:55;;;;;;;0.40;0.40;;;18.30;99.90;;;;;;5033011;28;20204;-67
2022/10/26 13:53:52;;;;;;;0.40;0.40;;;18.50;99.90;;;;;;5034898;28;20202;-68
2022/10/26 13:56:44;;;;;;;0.40;0.40;;;18.80;99.90;;;;;;5034877;28;20204;-68
2022/10/26 13:59:37;;;;;;;0.40;0.40;;;19.20;99.90;;;;;;5035383;28;20321;-68
2022/10/26 14:02:27;;;;;;;0.40;0.40;;;19.60;99.90;;;;;;5035323;28;20706;-67
2022/10/26 14:05:18;;;;;;;0.40;0.40;;;19.90;99.90;;;;;;5045508;28;20829;-67
2022/10/26 14:08:06;;;;;;;0.40;0.40;;;20.20;99.90;;;;;;5043244;28;20204;-68
2022/10/26 14:10:58;;;;;;;0.40;0.40;;;20.50;99.90;;;;;;5054246;28;20204;-67
2022/10/26 14:13:47;;;;;;;0.40;0.40;;;20.90;99.90;;;;;;5055358;28;20229;-67
2022/10/26 14:16:35;;;;;;;0.40;0.40;;;21.20;99.90;;;;;;5053560;28;20201;-68
2022/10/26 14:19:27;;;;;;;0.40;0.40;;;21.30;99.90;;;;;;5054124;28;20689;-68
2022/10/26 14:22:22;;;;;;;0.40;0.40;;;21.00;99.90;;;;;;5059974;28;20228;-68
2022/10/26 14:25:19;;;;;;;0.40;0.40;;;20.50;99.90;;;;;;5054660;28;20228;-68
2022/10/26 14:28:25;;;;;;;0.30;0.30;;;19.80;99.90;;;;;;5049001;28;20194;-68
2022/10/26 14:31:14;;;;;;;0.40;0.40;;;19.20;99.90;;;;;;5048032;28;20688;-68
2022/10/26 14:34:07;;;;;;;0.40;0.40;;;18.60;99.90;;;;;;5048644;28;20191;-68
2022/10/26 14:36:58;;;;;;;0.40;0.40;;;18.60;99.90;;;;;;5054356;28;20201;-68
2022/10/26 14:39:48;;;;;;;0.40;0.40;;;18.40;99.90;;;;;;5060512;28;20560;-68
2022/10/26 14:42:40;;;;;;;0.30;0.30;;;18.20;99.90;;;;;;5052435;28;20685;-68
2022/10/26 14:45:31;;;;;;;0.40;0.40;;;18.00;99.90;;;;;;5050438;28;20210;-68
2022/10/26 14:48:37;;;;;;;0.40;0.40;;;18.00;99.90;;;;;;5051135;28;20285;-68
2022/10/26 14:51:27;;;;;;;0.35;0.35;;;17.90;99.90;;;;;;5050720;28;20193;-68
2022/10/26 14:54:20;;;;;;;0.40;0.40;;;17.90;99.90;;;;;;5045577;28;20221;-68
2022/10/26 14:57:35;;;;;;;0.40;0.40;;;17.80;99.90;;;;;;5041983;28;20209;-67
2022/10/26 15:00:25;;;;;;;0.40;0.40;;;17.80;99.90;;;;;;5040207;28;20204;-68
2022/10/26 15:03:16;;;;;;;0.40;0.40;;;17.70;99.90;;;;;;5044236;28;20218;-67